Time;durP1;ratioP1;P1;durP2;ratioP2;P2;SDS_P1;SDS_P2;PMS_P1;PMS_P2;Temp;Humidity;BMP_temperature;BMP_pressure;BME280_temperature;BME280_humidity;BME280_pressure;Samples;Min_cycle;Max_cycle;Signal;HPM_P1;HPM_P2
2022/05/15 00:00:38;;;;;;;2.78;2.35;;;;;;;;;;12493313;28;20145;-76
2022/05/15 00:06:40;;;;;;;2.47;2.28;;;;;;;;;;12481578;28;20045;-76
2022/05/15 00:12:41;;;;;;;2.45;2.22;;;;;;;;;;12504156;28;20065;-77
2022/05/15 00:18:43;;;;;;;2.90;2.65;;;;;;;;;;12503839;28;20056;-77
2022/05/15 00:24:45;;;;;;;2.83;2.63;;;;;;;;;;12502273;28;20048;-77
2022/05/15 00:30:47;;;;;;;2.83;2.63;;;;;;;;;;12503464;28;20041;-77
2022/05/15 00:36:48;;;;;;;3.25;2.95;;;;;;;;;;12503439;28;20037;-77
2022/05/15 00:42:50;;;;;;;2.78;2.58;;;;;;;;;;12503109;28;20049;-77
2022/05/15 00:48:52;;;;;;;3.20;3.00;;;;;;;;;;12501413;28;20352;-77
2022/05/15 00:54:56;;;;;;;2.75;2.55;;;;;;;;;;12501050;28;20482;-77
2022/05/15 01:00:58;;;;;;;3.65;3.10;;;;;;;;;;12500532;28;20045;-77
2022/05/15 01:07:02;;;;;;;2.95;2.75;;;;;;;;;;12500213;28;20502;-77
2022/05/15 01:13:04;;;;;;;3.47;3.05;;;;;;;;;;12499882;28;20029;-77
2022/05/15 01:19:07;;;;;;;2.95;2.75;;;;;;;;;;12499040;28;20391;-77
2022/05/15 01:25:14;;;;;;;3.33;3.08;;;;;;;;;;12499889;28;20045;-77
2022/05/15 01:31:18;;;;;;;3.33;3.03;;;;;;;;;;12467017;28;20037;-77
2022/05/15 01:37:20;;;;;;;3.38;3.08;;;;;;;;;;12499514;28;20042;-77
2022/05/15 01:43:22;;;;;;;3.72;3.20;;;;;;;;;;12498773;28;20053;-77
2022/05/15 01:49:24;;;;;;;3.15;2.80;;;;;;;;;;12498463;28;20037;-77
2022/05/15 01:55:26;;;;;;;3.13;2.80;;;;;;;;;;12498261;28;20200;-77
2022/05/15 02:01:28;;;;;;;3.30;3.00;;;;;;;;;;12499072;28;20403;-77
2022/05/15 02:07:30;;;;;;;3.65;3.17;;;;;;;;;;12465256;28;20049;-77
2022/05/15 02:13:32;;;;;;;2.88;2.67;;;;;;;;;;12464686;28;20045;-77
2022/05/15 02:19:34;;;;;;;;;;;;;;;;;;12497754;28;20487;-77
2022/05/15 02:25:37;;;;;;;2.90;2.67;;;;;;;;;;12480225;28;19921;-77
2022/05/15 02:31:40;;;;;;;2.92;2.70;;;;;;;;;;12496460;28;20029;-77
2022/05/15 02:37:44;;;;;;;2.30;2.10;;;;;;;;;;12480550;28;20041;-77
2022/05/15 02:43:46;;;;;;;2.88;2.42;;;;;;;;;;12495868;28;20052;-77
2022/05/15 02:56:15;;;;;;;2.70;2.50;;;;;;;;;;12495397;28;20068;-77
2022/05/15 03:02:18;;;;;;;3.03;2.50;;;;;;;;;;12495031;28;20044;-77
2022/05/15 03:08:20;;;;;;;4.20;3.50;;;;;;;;;;12478349;28;20435;-78
2022/05/15 03:14:21;;;;;;;3.13;2.70;;;;;;;;;;12496035;28;20041;-77
2022/05/15 03:20:27;;;;;;;3.03;2.77;;;;;;;;;;12478078;28;20029;-77
2022/05/15 03:26:29;;;;;;;3.35;2.92;;;;;;;;;;12461223;28;20483;-77
2022/05/15 03:32:31;;;;;;;;;;;;;;;;;;12495679;28;20033;-77
2022/05/15 03:38:33;;;;;;;3.25;2.60;;;;;;;;;;12478117;28;19909;-77
2022/05/15 03:44:37;;;;;;;3.55;3.25;;;;;;;;;;12494256;28;20045;-77
2022/05/15 03:50:39;;;;;;;3.42;2.60;;;;;;;;;;12461513;28;20029;-77
2022/05/15 03:56:50;;;;;;;2.57;2.37;;;;;;;;;;12493739;28;20041;-77
2022/05/15 04:02:53;;;;;;;2.80;2.60;;;;;;;;;;12493358;28;20811;-77
2022/05/15 04:08:55;;;;;;;2.80;2.60;;;;;;;;;;12493014;28;20765;-77
2022/05/15 04:14:57;;;;;;;3.72;2.88;;;;;;;;;;12492954;28;20394;-77
2022/05/15 04:20:59;;;;;;;2.85;2.65;;;;;;;;;;12492839;28;20033;-77
2022/05/15 04:27:01;;;;;;;2.70;2.35;;;;;;;;;;12476284;28;20045;-77
2022/05/15 04:33:02;;;;;;;2.70;2.50;;;;;;;;;;12492809;28;20038;-77
2022/05/15 04:39:05;;;;;;;2.90;2.60;;;;;;;;;;12494252;28;20378;-77
2022/05/15 04:45:07;;;;;;;3.45;3.03;;;;;;;;;;12493425;28;20057;-77
2022/05/15 04:51:09;;;;;;;2.95;2.75;;;;;;;;;;12494084;28;20044;-77
2022/05/15 04:57:11;;;;;;;4.00;3.60;;;;;;;;;;12502999;28;20044;-77
2022/05/15 05:03:12;;;;;;;3.13;2.93;;;;;;;;;;12484335;28;20300;-77
2022/05/15 05:09:14;;;;;;;2.70;2.47;;;;;;;;;;12500158;28;20296;-77
2022/05/15 05:15:16;;;;;;;3.10;2.65;;;;;;;;;;12500128;28;20040;-77
2022/05/15 05:21:18;;;;;;;2.60;2.40;;;;;;;;;;12483818;28;20037;-77
2022/05/15 05:27:20;;;;;;;2.72;2.53;;;;;;;;;;12502135;28;20497;-77
2022/05/15 05:33:22;;;;;;;;;;;;;;;;;;12467263;28;20033;-77
2022/05/15 05:39:24;;;;;;;2.08;1.65;;;;;;;;;;12499077;28;19916;-77
2022/05/15 05:45:26;;;;;;;2.30;2.10;;;;;;;;;;12466149;28;20053;-77
2022/05/15 05:51:28;;;;;;;2.47;2.28;;;;;;;;;;12482143;28;20048;-77
2022/05/15 05:57:29;;;;;;;2.47;2.20;;;;;;;;;;12499781;28;20048;-77
2022/05/15 06:09:52;;;;;;;3.20;2.90;;;;;;;;;;12499698;28;20056;-77
2022/05/15 06:15:54;;;;;;;3.53;2.90;;;;;;;;;;12497300;28;20044;-77
2022/05/15 06:21:56;;;;;;;2.47;2.28;;;;;;;;;;12498217;28;20037;-77
2022/05/15 06:27:58;;;;;;;2.65;2.13;;;;;;;;;;12498389;28;20036;-77
2022/05/15 06:34:00;;;;;;;2.50;2.30;;;;;;;;;;12496581;28;20029;-77
2022/05/15 06:40:02;;;;;;;1.63;1.52;;;;;;;;;;12496403;28;20048;-77
2022/05/15 06:46:04;;;;;;;2.33;2.13;;;;;;;;;;12496085;28;20049;-77
2022/05/15 06:52:06;;;;;;;;;;;;;;;;;;12496857;28;20399;-77
2022/05/15 06:58:07;;;;;;;3.27;2.03;;;;;;;;;;12496796;28;20297;-77
2022/05/15 07:04:09;;;;;;;3.33;2.58;;;;;;;;;;12496653;28;20033;-77
2022/05/15 07:10:11;;;;;;;2.75;2.25;;;;;;;;;;12462917;28;20057;-77
2022/05/15 07:16:12;;;;;;;2.90;2.60;;;;;;;;;;12477906;28;20601;-77
2022/05/15 07:22:14;;;;;;;2.17;1.77;;;;;;;;;;12478118;28;20025;-77
2022/05/15 07:28:17;;;;;;;2.45;2.25;;;;;;;;;;12495509;28;20040;-77
2022/05/15 07:34:19;;;;;;;2.40;2.20;;;;;;;;;;12495435;28;20033;-77
2022/05/15 07:40:21;;;;;;;2.10;1.73;;;;;;;;;;12494639;28;20044;-76
2022/05/15 07:46:22;;;;;;;;;;;;;;;;;;12477471;28;20052;-76
2022/05/15 07:52:24;;;;;;;2.10;1.90;;;;;;;;;;12477006;28;19932;-76
2022/05/15 07:58:26;;;;;;;1.85;1.67;;;;;;;;;;12460774;28;20280;-76
2022/05/15 08:04:28;;;;;;;2.33;2.05;;;;;;;;;;12493844;28;20049;-76
2022/05/15 08:10:30;;;;;;;;;;;;;;;;;;12460968;28;20061;-76
2022/05/15 08:16:35;;;;;;;1.83;1.73;;;;;;;;;;12494259;28;19913;-77
2022/05/15 08:28:58;;;;;;;1.50;1.40;;;;;;;;;;12482524;28;20040;-77
2022/05/15 08:35:00;;;;;;;2.03;1.63;;;;;;;;;;12503175;28;20025;-77
2022/05/15 08:41:05;;;;;;;1.20;1.10;;;;;;;;;;12485406;28;20037;-77
2022/05/15 08:47:16;;;;;;;1.42;1.33;;;;;;;;;;12502782;28;20406;-77
2022/05/15 08:53:31;;;;;;;3.60;1.40;;;;;;;;;;12485185;28;20029;-77
2022/05/15 08:59:34;;;;;;;4.05;1.60;;;;;;;;;;12502232;28;20386;-77
2022/05/15 09:05:35;;;;;;;2.03;1.90;;;;;;;;;;12484077;28;20038;-77
2022/05/15 09:11:37;;;;;;;;;;;;;;;;;;12484770;28;20084;-76
2022/05/15 09:17:48;;;;;;;1.97;1.87;;;;;;;;;;12483895;28;19987;-77
2022/05/15 09:23:51;;;;;;;2.13;2.03;;;;;;;;;;12483795;28;20401;-76
2022/05/15 09:29:54;;;;;;;1.75;1.40;;;;;;;;;;12501081;28;20395;-76
2022/05/15 09:36:14;;;;;;;1.85;1.73;;;;;;;;;;12483058;28;20041;-76
2022/05/15 09:48:39;;;;;;;2.95;2.35;;;;;;;;;;12482367;28;20041;-77
2022/05/15 09:54:46;;;;;;;2.13;1.80;;;;;;;;;;12499604;28;20045;-76
2022/05/15 10:00:48;;;;;;;1.92;1.73;;;;;;;;;;12499625;28;20399;-77
2022/05/15 10:07:09;;;;;;;2.33;2.13;;;;;;;;;;12470157;28;20053;-77
2022/05/15 10:13:21;;;;;;;2.10;1.90;;;;;;;;;;12464783;28;20410;-77
2022/05/15 10:19:29;;;;;;;2.72;2.53;;;;;;;;;;12498469;28;20034;-77
2022/05/15 10:25:36;;;;;;;1.75;1.65;;;;;;;;;;12498386;28;20486;-77
2022/05/15 10:31:41;;;;;;;2.33;2.10;;;;;;;;;;12480555;28;20030;-77
2022/05/15 10:37:45;;;;;;;1.77;1.67;;;;;;;;;;12498540;28;20021;-77
2022/05/15 10:44:23;;;;;;;2.55;2.28;;;;;;;;;;12496941;28;20065;-77
2022/05/15 10:50:27;;;;;;;1.88;1.73;;;;;;;;;;12423224;28;20041;-78
2022/05/15 11:03:28;;;;;;;1.63;1.52;;;;;;;;;;12478899;28;20045;-78
2022/05/15 11:09:49;;;;;;;1.73;1.63;;;;;;;;;;12471843;28;20045;-77
2022/05/15 11:16:02;;;;;;;2.35;1.65;;;;;;;;;;12478606;28;20045;-77
2022/05/15 11:22:18;;;;;;;2.15;1.70;;;;;;;;;;12495380;28;20060;-77
2022/05/15 11:28:29;;;;;;;2.15;1.95;;;;;;;;;;12495644;28;20048;-77
2022/05/15 11:34:49;;;;;;;1.40;1.30;;;;;;;;;;12477675;28;20037;-78
2022/05/15 11:40:52;;;;;;;2.87;1.50;;;;;;;;;;12478116;28;20026;-77
2022/05/15 11:46:54;;;;;;;1.67;1.58;;;;;;;;;;12495052;28;20055;-78
2022/05/15 11:52:56;;;;;;;2.30;1.73;;;;;;;;;;12476965;28;20044;-78
2022/05/15 11:58:59;;;;;;;1.50;1.40;;;;;;;;;;12494298;28;20037;-78
2022/05/15 12:05:01;;;;;;;1.80;1.70;;;;;;;;;;12491460;28;20048;-78
2022/05/15 12:11:18;;;;;;;1.48;1.38;;;;;;;;;;12493224;28;20060;-78
2022/05/15 12:17:30;;;;;;;2.53;1.85;;;;;;;;;;12510645;28;20040;-78
2022/05/15 12:24:27;;;;;;;2.75;1.92;;;;;;;;;;12510273;28;20403;-78
2022/05/15 12:30:08;;;;;;;2.38;1.90;;;;;;;;;;12510065;28;20041;-78
2022/05/15 12:36:14;;;;;;;2.13;1.95;;;;;;;;;;12510265;28;20037;-78
2022/05/15 12:42:20;;;;;;;2.10;1.90;;;;;;;;;;12492132;28;20048;-78
2022/05/15 12:48:23;;;;;;;1.88;1.77;;;;;;;;;;12508015;28;20368;-78
2022/05/15 12:54:28;;;;;;;2.20;1.80;;;;;;;;;;12509597;28;20041;-78
2022/05/15 13:00:32;;;;;;;1.77;1.67;;;;;;;;;;12492034;28;20029;-76
2022/05/15 13:06:36;;;;;;;2.10;1.90;;;;;;;;;;12491649;28;20056;-77
2022/05/15 13:12:48;;;;;;;1.90;1.70;;;;;;;;;;12506763;28;20056;-77
2022/05/15 13:18:53;;;;;;;1.65;1.55;;;;;;;;;;12484059;28;20033;-77
2022/05/15 13:25:01;;;;;;;1.85;1.52;;;;;;;;;;12500868;28;20045;-76
2022/05/15 13:31:03;;;;;;;3.80;2.20;;;;;;;;;;12499426;28;20040;-78
2022/05/15 13:37:23;;;;;;;1.70;1.60;;;;;;;;;;12483023;28;20046;-77
2022/05/15 13:43:28;;;;;;;2.53;1.30;;;;;;;;;;12482580;28;20041;-76
2022/05/15 13:49:43;;;;;;;1.88;1.67;;;;;;;;;;12482430;28;20029;-78
2022/05/15 13:55:46;;;;;;;1.65;1.55;;;;;;;;;;12482112;28;20052;-78
2022/05/15 14:02:03;;;;;;;2.92;1.75;;;;;;;;;;12499475;28;20038;-78
2022/05/15 14:08:17;;;;;;;6.65;1.80;;;;;;;;;;12481788;28;20049;-77
2022/05/15 14:14:38;;;;;;;4.35;1.98;;;;;;;;;;12498738;28;20037;-77
2022/05/15 14:20:41;;;;;;;1.75;1.65;;;;;;;;;;12497136;28;20029;-77
2022/05/15 14:26:43;;;;;;;1.63;1.52;;;;;;;;;;12479867;28;20222;-78
2022/05/15 14:32:56;;;;;;;1.33;1.23;;;;;;;;;;12498428;28;20032;-78
2022/05/15 14:38:58;;;;;;;2.13;1.58;;;;;;;;;;12498478;28;20045;-78
2022/05/15 14:44:59;;;;;;;1.58;1.33;;;;;;;;;;12497017;28;20046;-78
2022/05/15 14:51:04;;;;;;;2.72;1.60;;;;;;;;;;12497501;28;20033;-78
2022/05/15 14:57:08;;;;;;;1.88;1.15;;;;;;;;;;12497275;28;20037;-78
2022/05/15 15:03:10;;;;;;;1.60;1.50;;;;;;;;;;12496917;28;20045;-78
2022/05/15 15:09:12;;;;;;;1.60;1.50;;;;;;;;;;12478938;28;20057;-78
2022/05/15 15:15:14;;;;;;;1.10;1.10;;;;;;;;;;12496233;28;20033;-78
2022/05/15 15:21:16;;;;;;;1.35;1.25;;;;;;;;;;12495957;28;20041;-78
2022/05/15 15:27:18;;;;;;;1.88;1.50;;;;;;;;;;12493938;28;20037;-78
2022/05/15 15:33:21;;;;;;;1.88;1.58;;;;;;;;;;12477674;28;20382;-78
2022/05/15 15:39:22;;;;;;;1.20;1.10;;;;;;;;;;12476883;28;20038;-78
2022/05/15 15:45:24;;;;;;;0.82;0.82;;;;;;;;;;12495548;28;20394;-78
2022/05/15 15:51:26;;;;;;;1.10;1.00;;;;;;;;;;12477129;28;20041;-78
2022/05/15 15:57:28;;;;;;;1.73;1.27;;;;;;;;;;12494828;28;20033;-78
2022/05/15 16:03:30;;;;;;;2.15;1.10;;;;;;;;;;12493350;28;20049;-77
2022/05/15 16:09:33;;;;;;;1.40;1.30;;;;;;;;;;12476460;28;20057;-78
2022/05/15 16:15:35;;;;;;;1.10;1.05;;;;;;;;;;12475981;28;20037;-77
2022/05/15 16:21:45;;;;;;;1.05;1.05;;;;;;;;;;12493907;28;20422;-77
2022/05/15 16:27:49;;;;;;;1.60;1.50;;;;;;;;;;12493823;28;20394;-77
2022/05/15 16:33:50;;;;;;;2.75;1.60;;;;;;;;;;12475682;28;20287;-77
2022/05/15 16:39:52;;;;;;;9.63;2.13;;;;;;;;;;12492897;28;20029;-77
2022/05/15 16:45:54;;;;;;;2.00;1.08;;;;;;;;;;12475309;28;20060;-77
2022/05/15 16:51:56;;;;;;;1.60;1.50;;;;;;;;;;12484735;28;20068;-78
2022/05/15 16:57:58;;;;;;;1.52;1.42;;;;;;;;;;12484417;28;20033;-78
2022/05/15 17:04:00;;;;;;;1.55;1.40;;;;;;;;;;12484175;28;20049;-78
2022/05/15 17:10:01;;;;;;;3.22;1.20;;;;;;;;;;12501466;28;20053;-78
2022/05/15 17:16:04;;;;;;;1.48;1.38;;;;;;;;;;12483330;28;20037;-78
2022/05/15 17:22:06;;;;;;;1.30;1.10;;;;;;;;;;12483241;28;20037;-78
2022/05/15 17:28:11;;;;;;;1.48;1.10;;;;;;;;;;12501050;28;20517;-78
2022/05/15 17:34:13;;;;;;;1.95;1.23;;;;;;;;;;12482802;28;20033;-78
2022/05/15 17:40:16;;;;;;;1.55;1.23;;;;;;;;;;12501304;28;20033;-75
2022/05/15 17:46:18;;;;;;;0.95;0.80;;;;;;;;;;12499834;28;20360;-77
2022/05/15 17:52:20;;;;;;;1.20;1.10;;;;;;;;;;12465656;28;20060;-78
2022/05/15 17:58:22;;;;;;;1.40;1.27;;;;;;;;;;12464201;28;20482;-77
2022/05/15 18:04:24;;;;;;;1.38;1.10;;;;;;;;;;12498056;28;20041;-77
2022/05/15 18:10:29;;;;;;;1.50;1.25;;;;;;;;;;12480929;28;20045;-77
2022/05/15 18:16:30;;;;;;;1.58;1.10;;;;;;;;;;12497361;28;20046;-77
2022/05/15 18:22:32;;;;;;;1.52;1.27;;;;;;;;;;12480567;28;20036;-77
2022/05/15 18:28:34;;;;;;;1.70;1.60;;;;;;;;;;12464157;28;20044;-77
2022/05/15 18:34:36;;;;;;;2.58;1.40;;;;;;;;;;12480114;28;20041;-77
2022/05/15 18:40:38;;;;;;;2.20;1.45;;;;;;;;;;12498941;28;20032;-77
2022/05/15 18:46:40;;;;;;;3.28;1.20;;;;;;;;;;12479209;28;20049;-77
2022/05/15 18:59:03;;;;;;;1.50;1.40;;;;;;;;;;12478769;28;20036;-77
2022/05/15 19:05:05;;;;;;;2.92;1.10;;;;;;;;;;12496064;28;20037;-77
2022/05/15 19:11:07;;;;;;;1.35;0.85;;;;;;;;;;12495724;28;20057;-78
2022/05/15 19:17:10;;;;;;;1.10;1.00;;;;;;;;;;12461014;28;20048;-76
2022/05/15 19:23:11;;;;;;;1.35;1.25;;;;;;;;;;12477916;28;20037;-77
2022/05/15 19:29:15;;;;;;;1.02;1.00;;;;;;;;;;12496037;28;20036;-77
2022/05/15 19:35:17;;;;;;;1.50;1.40;;;;;;;;;;12477570;28;20030;-77
2022/05/15 19:41:19;;;;;;;1.27;1.17;;;;;;;;;;12477554;28;20038;-77
2022/05/15 19:47:22;;;;;;;1.23;1.02;;;;;;;;;;12495045;28;20052;-76
2022/05/15 19:53:25;;;;;;;1.52;1.38;;;;;;;;;;12494364;28;20041;-77
2022/05/15 19:59:27;;;;;;;1.90;1.23;;;;;;;;;;12477225;28;20038;-78
2022/05/15 20:11:50;;;;;;;1.30;1.10;;;;;;;;;;12493872;28;20058;-78
2022/05/15 20:17:52;;;;;;;1.70;1.42;;;;;;;;;;12494050;28;20030;-78
2022/05/15 20:23:54;;;;;;;0.90;0.80;;;;;;;;;;12481277;28;20433;-78
2022/05/15 20:29:56;;;;;;;1.33;1.23;;;;;;;;;;12503640;28;20040;-78
2022/05/15 20:35:58;;;;;;;;;;;;;;;;;;12486152;28;20034;-77
2022/05/15 20:41:59;;;;;;;1.47;1.20;;;;;;;;;;12502956;28;20003;-76
2022/05/15 20:48:03;;;;;;;;;;;;;;;;;;12485464;28;20483;-76
2022/05/15 20:54:04;;;;;;;1.35;1.25;;;;;;;;;;12502922;28;19909;-76
2022/05/15 21:00:08;;;;;;;1.67;1.45;;;;;;;;;;12468248;28;20037;-77
2022/05/15 21:06:10;;;;;;;1.23;1.10;;;;;;;;;;12502345;28;20045;-77
2022/05/15 21:12:11;;;;;;;;;;;;;;;;;;12485342;28;20077;-77
2022/05/15 21:18:13;;;;;;;1.30;1.10;;;;;;;;;;12467604;28;20277;-76
2022/05/15 21:24:14;;;;;;;;;;;;;;;;;;12484107;28;20045;-78
2022/05/15 21:30:16;;;;;;;1.73;1.00;;;;;;;;;;12483462;28;19931;-76
2022/05/15 21:36:18;;;;;;;2.17;1.17;;;;;;;;;;12499188;28;20494;-75
2022/05/15 21:48:45;;;;;;;1.88;1.20;;;;;;;;;;12500156;28;20131;-77
2022/05/15 21:54:47;;;;;;;2.05;1.77;;;;;;;;;;12482618;28;20042;-77
2022/05/15 22:00:56;;;;;;;2.22;1.73;;;;;;;;;;12499850;28;20033;-77
2022/05/15 22:06:57;;;;;;;1.80;1.70;;;;;;;;;;12482268;28;20049;-77
2022/05/15 22:12:59;;;;;;;2.33;1.60;;;;;;;;;;12499121;28;20088;-77
2022/05/15 22:19:01;;;;;;;3.45;1.60;;;;;;;;;;12497809;28;20364;-77
2022/05/15 22:25:03;;;;;;;1.70;1.60;;;;;;;;;;12498263;28;20506;-77
2022/05/15 22:31:05;;;;;;;1.73;1.60;;;;;;;;;;12498420;28;20044;-77
2022/05/15 22:37:06;;;;;;;2.00;1.80;;;;;;;;;;12497764;28;20033;-77
2022/05/15 22:43:08;;;;;;;1.80;1.70;;;;;;;;;;12497133;28;20033;-77
2022/05/15 22:49:10;;;;;;;1.67;1.58;;;;;;;;;;12479506;28;20056;-77
2022/05/15 22:55:12;;;;;;;;;;;;;;;;;;12481305;28;20038;-77
2022/05/15 23:01:13;;;;;;;1.57;1.47;;;;;;;;;;12479270;28;20290;-77
2022/05/15 23:07:30;;;;;;;;;;;;;;;;;;12479274;28;20049;-77
2022/05/15 23:13:32;;;;;;;2.13;1.50;;;;;;;;;;12479446;28;19913;-77
2022/05/15 23:19:35;;;;;;;2.47;1.92;;;;;;;;;;12495064;28;20060;-77
2022/05/15 23:25:37;;;;;;;2.50;1.98;;;;;;;;;;12495694;28;20045;-76
2022/05/15 23:31:38;;;;;;;1.98;1.88;;;;;;;;;;12477830;28;20034;-77
2022/05/15 23:37:40;;;;;;;1.50;1.33;;;;;;;;;;12478446;28;20037;-77
2022/05/15 23:43:42;;;;;;;2.28;1.58;;;;;;;;;;12495968;28;20034;-77
2022/05/15 23:49:47;;;;;;;1.88;1.65;;;;;;;;;;12495001;28;20045;-77
2022/05/15 23:55:49;;;;;;;3.25;2.10;;;;;;;;;;12492831;28;20040;-77
